createdAt,value
2022-10-01T00:02:08.146Z,84.34
2022-10-01T00:04:37.657Z,84.51
2022-10-01T00:07:09.548Z,83.54
2022-10-01T00:09:37.585Z,84.35
2022-10-01T00:12:05.354Z,83.81
2022-10-01T00:14:33.024Z,83.80
2022-10-01T00:17:01.024Z,83.83
2022-10-01T00:19:28.727Z,81.79
2022-10-01T00:21:56.282Z,81.16
2022-10-01T00:24:24.259Z,82.27
2022-10-01T00:26:51.812Z,82.54
2022-10-01T00:29:19.516Z,81.40
2022-10-01T00:31:47.764Z,81.46
2022-10-01T00:34:15.873Z,81.18
2022-10-01T00:36:43.625Z,81.72
2022-10-01T00:39:12.256Z,83.06
2022-10-01T00:41:40.513Z,81.43
2022-10-01T00:44:29.472Z,82.05
2022-10-01T00:47:19.665Z,81.26
2022-10-01T00:49:49.357Z,81.08
2022-10-01T00:52:22.678Z,79.21
2022-10-01T00:54:55.741Z,79.44
2022-10-01T00:57:26.551Z,79.24
2022-10-01T00:59:57.856Z,78.65
2022-10-01T01:02:26.002Z,78.81
2022-10-01T01:04:53.640Z,78.94
2022-10-01T01:07:22.222Z,82.69
2022-10-01T01:09:53.500Z,82.54
2022-10-01T01:12:21.026Z,81.79
2022-10-01T01:15:04.855Z,82.80
2022-10-01T01:17:50.852Z,83.25
2022-10-01T01:20:37.856Z,83.03
2022-10-01T01:23:14.857Z,83.07
2022-10-01T01:26:10.431Z,82.61
2022-10-01T01:28:44.480Z,82.23
2022-10-01T01:31:16.253Z,82.41
2022-10-01T01:33:47.453Z,81.37
2022-10-01T01:36:19.202Z,80.64
2022-10-01T01:38:54.834Z,81.33
2022-10-01T01:41:26.015Z,80.73
2022-10-01T01:43:56.751Z,80.78
2022-10-01T01:46:31.686Z,82.31
2022-10-01T01:49:02.266Z,81.81
2022-10-01T01:51:47.807Z,80.86
2022-10-01T01:54:15.862Z,80.68
2022-10-01T01:56:43.563Z,78.49
2022-10-01T01:59:11.819Z,77.84
2022-10-01T02:01:44.255Z,79.16
2022-10-01T02:04:31.603Z,79.08
2022-10-01T02:07:36.379Z,79.07
2022-10-01T02:10:16.898Z,80.15
2022-10-01T02:13:14.302Z,79.46
2022-10-01T02:15:48.415Z,77.34
2022-10-01T02:18:50.677Z,79.31
2022-10-01T02:21:30.407Z,78.24
2022-10-01T02:24:09.268Z,76.67
2022-10-01T02:26:40.555Z,76.50
2022-10-01T02:29:11.404Z,77.38
2022-10-01T02:31:41.321Z,78.46
2022-10-01T02:34:12.627Z,77.60
2022-10-01T02:36:42.522Z,77.29
2022-10-01T02:39:12.256Z,78.15
2022-10-01T02:41:44.208Z,77.31
2022-10-01T02:44:23.433Z,77.31
2022-10-01T02:47:15.108Z,77.39
2022-10-01T02:49:43.061Z,79.14
2022-10-01T02:52:26.285Z,80.32
2022-10-01T02:55:07.730Z,79.62
2022-10-01T02:57:37.180Z,78.67
2022-10-01T03:00:09.323Z,78.51
2022-10-01T03:02:37.533Z,80.81
2022-10-01T03:05:06.256Z,79.97
2022-10-01T03:07:35.821Z,79.47
2022-10-01T03:10:05.159Z,79.20
2022-10-01T03:12:33.202Z,80.04
2022-10-01T03:15:02.396Z,80.50
2022-10-01T03:17:30.613Z,82.27
2022-10-01T03:19:58.205Z,82.41
2022-10-01T03:22:25.782Z,82.19
2022-10-01T03:24:54.156Z,83.69
2022-10-01T03:27:22.547Z,82.49
2022-10-01T03:29:50.609Z,81.11
2022-10-01T03:32:18.717Z,79.90
2022-10-01T03:34:46.685Z,80.13
2022-10-01T03:37:14.364Z,82.23
2022-10-01T03:39:42.777Z,80.76
2022-10-01T03:42:10.355Z,80.86
2022-10-01T03:44:37.909Z,83.52
2022-10-01T03:47:05.781Z,85.56
2022-10-01T03:49:34.657Z,83.89
2022-10-01T03:52:04.130Z,82.44
2022-10-01T03:54:32.020Z,82.80
2022-10-01T03:56:59.647Z,83.83
2022-10-01T03:59:27.529Z,83.18
2022-10-01T04:01:55.689Z,83.31
2022-10-01T04:04:23.652Z,81.67
2022-10-01T04:06:51.202Z,80.73
2022-10-01T04:09:18.719Z,81.22
2022-10-01T04:11:46.608Z,82.06
2022-10-01T04:14:14.316Z,84.93
2022-10-01T04:16:41.891Z,82.59
2022-10-01T04:19:10.068Z,80.35
2022-10-01T04:21:39.078Z,79.96
2022-10-01T04:24:06.737Z,80.05
2022-10-01T04:26:34.725Z,82.49
2022-10-01T04:29:02.382Z,84.45
2022-10-01T04:31:35.080Z,82.09
2022-10-01T04:34:03.968Z,83.39
2022-10-01T04:36:31.569Z,81.04
2022-10-01T04:39:02.478Z,82.39
2022-10-01T04:41:31.487Z,81.84
2022-10-01T04:44:00.055Z,81.26
2022-10-01T04:46:30.568Z,81.69
2022-10-01T04:48:58.665Z,82.71
2022-10-01T04:51:26.265Z,83.38
2022-10-01T04:53:53.859Z,80.61
2022-10-01T04:56:21.871Z,80.48
2022-10-01T04:58:49.393Z,80.49
2022-10-01T05:01:16.938Z,81.64
2022-10-01T05:03:44.899Z,82.02
2022-10-01T05:06:12.401Z,82.07
2022-10-01T05:08:39.985Z,84.29
2022-10-01T05:11:07.883Z,81.33
2022-10-01T05:13:35.493Z,81.70
2022-10-01T05:16:03.880Z,81.93
2022-10-01T05:18:32.461Z,81.37
2022-10-01T05:21:04.873Z,81.44
2022-10-01T05:23:33.622Z,82.08
2022-10-01T05:26:01.283Z,82.66
2022-10-01T05:28:29.187Z,80.01
2022-10-01T05:31:00.603Z,81.39
2022-10-01T05:33:28.586Z,81.14
2022-10-01T05:35:57.125Z,81.06
2022-10-01T05:38:25.133Z,80.36
2022-10-01T05:40:52.637Z,79.35
2022-10-01T05:43:20.294Z,78.91
2022-10-01T05:45:49.786Z,81.58
2022-10-01T05:48:17.437Z,82.10
2022-10-01T05:50:45.064Z,81.12
2022-10-01T05:53:14.166Z,80.88
2022-10-01T05:55:41.872Z,80.58
2022-10-01T05:58:12.433Z,80.41
2022-10-01T06:00:41.475Z,79.12
2022-10-01T06:03:13.007Z,80.31
2022-10-01T06:05:41.068Z,78.75
2022-10-01T06:08:12.006Z,78.51
2022-10-01T06:10:39.921Z,77.95
2022-10-01T06:13:07.848Z,79.83
2022-10-01T06:15:38.904Z,80.25
2022-10-01T06:18:08.011Z,79.25
2022-10-01T06:20:36.645Z,79.00
2022-10-01T06:23:07.364Z,78.95
2022-10-01T06:25:36.450Z,79.87
2022-10-01T06:28:05.984Z,79.43
2022-10-01T06:30:36.302Z,78.65
2022-10-01T06:33:09.258Z,78.81
2022-10-01T06:35:44.685Z,81.14
2022-10-01T06:38:13.270Z,81.99
2022-10-01T06:40:41.410Z,80.04
2022-10-01T06:43:09.962Z,79.49
2022-10-01T06:45:41.159Z,78.91
2022-10-01T06:48:13.913Z,78.22
2022-10-01T06:50:44.079Z,77.97
2022-10-01T06:53:13.079Z,78.15
2022-10-01T06:55:41.324Z,78.34
2022-10-01T06:58:21.093Z,79.27
2022-10-01T07:00:49.963Z,79.64
2022-10-01T07:03:20.170Z,79.74
2022-10-01T07:05:49.216Z,80.86
2022-10-01T07:08:17.749Z,81.53
2022-10-01T07:10:45.883Z,82.46
2022-10-01T07:13:20.271Z,81.29
2022-10-01T07:15:48.368Z,82.28
2022-10-01T07:18:16.976Z,79.49
2022-10-01T07:20:44.575Z,79.42
2022-10-01T07:23:14.831Z,80.95
2022-10-01T07:25:43.278Z,80.36
2022-10-01T07:28:16.827Z,81.07
2022-10-01T07:31:00.500Z,81.50
2022-10-01T07:33:28.884Z,81.43
2022-10-01T07:36:00.310Z,81.55
2022-10-01T07:38:27.927Z,80.95
2022-10-01T07:40:55.706Z,78.69
2022-10-01T07:43:23.542Z,78.27
2022-10-01T07:45:52.801Z,79.29
2022-10-01T07:48:20.534Z,81.83
2022-10-01T07:50:48.392Z,82.53
2022-10-01T07:53:16.564Z,80.43
2022-10-01T07:55:44.893Z,78.41
2022-10-01T07:58:13.084Z,80.67
2022-10-01T08:00:40.636Z,81.07
2022-10-01T08:03:09.089Z,77.06
2022-10-01T08:05:36.890Z,75.88
2022-10-01T08:08:07.152Z,77.15
2022-10-01T08:10:37.383Z,79.49
2022-10-01T08:13:14.858Z,77.58
2022-10-01T08:15:50.675Z,78.06
2022-10-01T08:18:18.577Z,78.57
2022-10-01T08:20:47.390Z,79.26
2022-10-01T08:23:16.955Z,79.80
2022-10-01T08:25:45.262Z,78.48
2022-10-01T08:28:13.396Z,78.46
2022-10-01T08:30:42.857Z,80.49
2022-10-01T08:33:12.237Z,79.34
2022-10-01T08:35:41.504Z,79.11
2022-10-01T08:38:09.987Z,79.34
2022-10-01T08:40:50.056Z,79.01
2022-10-01T08:43:27.697Z,79.14
2022-10-01T08:46:00.579Z,79.67
2022-10-01T08:48:43.461Z,78.48
2022-10-01T08:51:23.048Z,77.71
2022-10-01T08:53:57.622Z,77.89
2022-10-01T08:56:30.911Z,76.74
2022-10-01T08:59:02.941Z,78.18
2022-10-01T09:01:31.246Z,77.49
2022-10-01T09:03:59.745Z,77.14
2022-10-01T09:06:28.415Z,77.49
2022-10-01T09:09:29.482Z,76.91
2022-10-01T09:12:00.228Z,76.87
2022-10-01T09:14:33.380Z,76.79
2022-10-01T09:17:48.689Z,77.19
2022-10-01T09:20:45.500Z,75.77
2022-10-01T09:23:22.344Z,75.99
2022-10-01T09:25:51.100Z,75.20
2022-10-01T09:28:24.415Z,76.61
2022-10-01T09:30:59.125Z,77.55
2022-10-01T09:33:33.922Z,76.81
2022-10-01T09:36:07.500Z,76.04
2022-10-01T09:38:48.614Z,75.02
2022-10-01T09:41:17.802Z,74.51
2022-10-01T09:43:45.943Z,74.49
2022-10-01T09:46:17.531Z,75.23
2022-10-01T09:48:54.371Z,74.27
2022-10-01T09:51:29.178Z,73.75
2022-10-01T09:54:05.195Z,74.93
2022-10-01T09:56:42.484Z,73.54
2022-10-01T09:59:20.799Z,73.57
2022-10-01T10:01:51.929Z,72.08
2022-10-01T10:04:23.276Z,72.13
2022-10-01T10:07:02.622Z,73.35
2022-10-01T10:09:33.432Z,72.79
2022-10-01T10:12:02.668Z,74.29
2022-10-01T10:14:41.226Z,73.49
2022-10-01T10:17:21.234Z,72.83
2022-10-01T10:19:51.803Z,71.32
2022-10-01T10:22:27.225Z,71.84
2022-10-01T10:24:58.996Z,73.92
2022-10-01T10:27:29.465Z,72.55
2022-10-01T10:30:04.567Z,73.40
2022-10-01T10:32:33.593Z,71.86
2022-10-01T10:35:10.232Z,73.55
2022-10-01T10:37:44.494Z,72.39
2022-10-01T10:40:29.236Z,72.71
2022-10-01T10:42:59.217Z,72.88
2022-10-01T10:45:38.732Z,72.17
2022-10-01T10:48:12.026Z,71.76
2022-10-01T10:50:43.595Z,72.95
2022-10-01T10:53:22.808Z,72.19
2022-10-01T10:56:01.456Z,71.92
2022-10-01T10:58:31.833Z,73.09
2022-10-01T11:01:06.909Z,72.73
2022-10-01T11:03:38.120Z,71.02
2022-10-01T11:06:14.913Z,70.67
2022-10-01T11:08:43.465Z,70.91
2022-10-01T11:11:25.237Z,69.91
2022-10-01T11:14:08.499Z,71.11
2022-10-01T11:16:36.930Z,69.19
2022-10-01T11:19:23.066Z,68.48
2022-10-01T11:22:13.647Z,68.17
2022-10-01T11:25:02.832Z,68.17
2022-10-01T11:27:47.997Z,67.50
2022-10-01T11:30:22.534Z,68.69
2022-10-01T11:33:11.598Z,69.32
2022-10-01T11:36:04.564Z,71.24
2022-10-01T11:38:54.354Z,71.05
2022-10-01T11:41:39.306Z,72.34
2022-10-01T11:44:15.988Z,73.94
2022-10-01T11:47:07.747Z,74.94
2022-10-01T11:49:35.867Z,74.13
2022-10-01T11:52:14.852Z,72.71
2022-10-01T11:55:28.165Z,72.66
2022-10-01T11:58:47.971Z,74.46
2022-10-01T12:01:27.975Z,74.90
2022-10-01T12:04:06.814Z,75.00
2022-10-01T12:06:56.493Z,75.53
2022-10-01T12:09:36.949Z,76.97
2022-10-01T12:12:08.982Z,78.62
2022-10-01T12:14:51.093Z,79.07
2022-10-01T12:17:33.583Z,78.98
2022-10-01T12:20:04.332Z,79.34
2022-10-01T12:22:38.512Z,78.54
2022-10-01T12:25:12.885Z,78.59
2022-10-01T12:27:53.389Z,77.03
2022-10-01T12:30:22.248Z,76.80
2022-10-01T12:33:04.941Z,77.16
2022-10-01T12:35:47.509Z,77.05
2022-10-01T12:38:39.466Z,75.42
2022-10-01T12:41:33.997Z,77.88
2022-10-01T12:44:34.317Z,79.11
2022-10-01T12:47:36.501Z,78.50
2022-10-01T12:50:22.849Z,78.40
2022-10-01T12:53:09.448Z,77.72
2022-10-01T12:56:03.282Z,77.38
2022-10-01T12:58:56.778Z,78.45
2022-10-01T13:01:32.564Z,82.51
2022-10-01T13:04:20.695Z,82.85
2022-10-01T13:07:04.274Z,83.96
2022-10-01T13:09:51.011Z,85.60
2022-10-01T13:13:08.018Z,84.94
2022-10-01T13:15:39.245Z,85.81
2022-10-01T13:18:09.544Z,86.24
2022-10-01T13:20:53.056Z,81.32
2022-10-01T13:23:34.117Z,81.57
2022-10-01T13:26:13.340Z,83.39
2022-10-01T13:28:58.290Z,81.89
2022-10-01T13:31:39.984Z,82.22
2022-10-01T13:34:46.129Z,81.24
2022-10-01T13:37:17.207Z,83.15
2022-10-01T13:39:49.005Z,81.60
2022-10-01T13:42:27.581Z,82.17
2022-10-01T13:44:58.561Z,80.70
2022-10-01T13:47:27.920Z,79.65
2022-10-01T13:50:00.046Z,82.92
2022-10-01T13:52:29.844Z,83.44
2022-10-01T13:54:59.719Z,80.16
2022-10-01T13:57:38.454Z,81.39
2022-10-01T14:00:11.846Z,80.38
2022-10-01T14:02:43.375Z,80.52
2022-10-01T14:05:23.182Z,80.72
2022-10-01T14:07:57.989Z,79.11
2022-10-01T14:10:34.948Z,79.63
2022-10-01T14:13:23.186Z,80.78
2022-10-01T14:16:00.201Z,81.55
2022-10-01T14:18:39.187Z,81.16
2022-10-01T14:21:17.861Z,81.46
2022-10-01T14:24:05.364Z,79.58
2022-10-01T14:26:54.201Z,80.41
2022-10-01T14:29:22.576Z,80.04
2022-10-01T14:31:55.847Z,81.26
2022-10-01T14:34:42.507Z,80.07
2022-10-01T14:37:17.106Z,80.07
2022-10-01T14:39:45.762Z,82.81
2022-10-01T14:42:18.081Z,83.00
2022-10-01T14:44:47.501Z,81.32
2022-10-01T14:47:25.657Z,84.86
2022-10-01T14:49:54.682Z,82.84
2022-10-01T14:52:31.619Z,81.53
2022-10-01T14:55:11.890Z,82.12
2022-10-01T14:57:42.749Z,81.34
2022-10-01T15:00:26.524Z,79.39
2022-10-01T15:03:15.575Z,79.71
2022-10-01T15:05:45.315Z,78.91
2022-10-01T15:08:24.537Z,81.32
2022-10-01T15:11:06.069Z,81.17
2022-10-01T15:13:38.023Z,81.99
2022-10-01T15:16:12.677Z,81.35
2022-10-01T15:18:57.601Z,82.83
2022-10-01T15:21:36.774Z,82.45
2022-10-01T15:24:12.330Z,84.08
2022-10-01T15:26:40.385Z,82.75
2022-10-01T15:29:16.714Z,81.02
2022-10-01T15:31:47.136Z,80.54
2022-10-01T15:34:17.643Z,81.10
2022-10-01T15:36:47.533Z,79.54
2022-10-01T15:39:32.646Z,79.28
2022-10-01T15:42:08.904Z,80.26
2022-10-01T15:44:38.386Z,80.69
2022-10-01T15:47:26.467Z,81.15
2022-10-01T15:50:12.603Z,80.14
2022-10-01T15:53:06.234Z,81.37
2022-10-01T15:55:35.029Z,83.42
2022-10-01T15:58:05.168Z,83.18
2022-10-01T16:00:44.211Z,82.83
2022-10-01T16:03:19.819Z,79.82
2022-10-01T16:05:48.908Z,81.24
2022-10-01T16:08:21.931Z,81.53
2022-10-01T16:11:15.730Z,82.06
2022-10-01T16:13:46.826Z,81.45
2022-10-01T16:16:14.451Z,80.92
2022-10-01T16:18:42.652Z,81.72
2022-10-01T16:21:11.422Z,80.46
2022-10-01T16:23:43.801Z,80.46
2022-10-01T16:26:29.931Z,82.15
2022-10-01T16:29:06.431Z,80.29
2022-10-01T16:31:36.946Z,79.89
2022-10-01T16:34:14.600Z,81.17
2022-10-01T16:36:44.061Z,83.86
2022-10-01T16:39:16.045Z,82.86
2022-10-01T16:41:56.552Z,82.10
2022-10-01T16:44:29.272Z,79.43
2022-10-01T16:46:57.158Z,82.84
2022-10-01T16:49:25.545Z,81.00
2022-10-01T16:51:53.979Z,82.38
2022-10-01T16:54:24.962Z,80.95
2022-10-01T16:56:55.288Z,80.53
2022-10-01T16:59:24.770Z,81.02
2022-10-01T17:01:54.996Z,81.54
2022-10-01T17:04:23.551Z,82.39
2022-10-01T17:06:51.143Z,83.99
2022-10-01T17:09:18.863Z,84.28
2022-10-01T17:11:46.778Z,85.04
2022-10-01T17:14:22.282Z,83.21
2022-10-01T17:16:53.235Z,84.82
2022-10-01T17:19:24.998Z,91.98
2022-10-01T17:21:53.268Z,86.81
2022-10-01T17:24:21.153Z,87.01
2022-10-01T17:26:48.829Z,86.73
2022-10-01T17:29:16.787Z,87.47
2022-10-01T17:31:53.282Z,87.72
2022-10-01T17:34:21.925Z,88.52
2022-10-01T17:36:49.605Z,89.04
2022-10-01T17:39:17.237Z,87.95
2022-10-01T17:41:45.223Z,87.21
2022-10-01T17:44:12.874Z,87.96
2022-10-01T17:46:40.516Z,88.15
2022-10-01T17:49:08.842Z,88.67
2022-10-01T17:51:36.824Z,87.05
2022-10-01T17:54:04.883Z,87.63
2022-10-01T17:56:33.276Z,87.99
2022-10-01T17:59:01.112Z,87.96
2022-10-01T18:01:28.792Z,87.53
2022-10-01T18:03:57.597Z,88.88
2022-10-01T18:06:25.754Z,88.49
2022-10-01T18:08:56.214Z,88.48
2022-10-01T18:11:27.021Z,90.30
2022-10-01T18:13:54.631Z,89.26
2022-10-01T18:16:22.366Z,91.27
2022-10-01T18:21:47.258Z,90.29
2022-10-01T18:24:16.285Z,89.99
2022-10-01T18:26:45.681Z,90.93
2022-10-01T18:29:21.927Z,89.99
2022-10-01T18:31:59.027Z,91.03
2022-10-01T18:34:32.923Z,92.51
2022-10-01T18:37:26.900Z,91.71
2022-10-01T18:40:07.941Z,92.86
2022-10-01T18:43:00.753Z,93.76
2022-10-01T18:45:59.871Z,93.77
2022-10-01T18:48:54.048Z,93.61
2022-10-01T18:51:24.602Z,91.82
2022-10-01T18:54:04.904Z,92.27
2022-10-01T18:56:37.555Z,94.26
2022-10-01T18:59:40.614Z,94.90
2022-10-01T19:02:35.039Z,95.01
2022-10-01T19:05:05.735Z,95.77
2022-10-01T19:07:33.293Z,93.64
2022-10-01T19:10:41.478Z,94.02
2022-10-01T19:13:26.056Z,93.09
2022-10-01T19:16:33.104Z,94.65
2022-10-01T19:19:26.068Z,94.64
2022-10-01T19:22:34.136Z,94.09
2022-10-01T19:25:25.669Z,92.65
2022-10-01T19:28:26.009Z,90.96
2022-10-01T19:31:12.681Z,92.81
2022-10-01T19:34:05.713Z,92.26
2022-10-01T19:36:40.813Z,92.74
2022-10-01T19:39:16.034Z,94.08
2022-10-01T19:42:05.728Z,89.71
2022-10-01T19:44:52.006Z,90.59
2022-10-01T19:47:46.040Z,89.82
2022-10-01T19:50:31.681Z,89.00
2022-10-01T19:53:02.523Z,88.67
2022-10-01T19:55:38.851Z,88.97
2022-10-01T19:58:18.006Z,89.62
2022-10-01T20:00:52.813Z,86.98
2022-10-01T20:03:34.809Z,84.41
2022-10-01T20:06:07.166Z,83.05
2022-10-01T20:08:55.555Z,83.74
2022-10-01T20:11:30.299Z,83.05
2022-10-01T20:14:36.083Z,81.67
2022-10-01T20:17:21.452Z,81.06
2022-10-01T20:20:17.282Z,82.94
2022-10-01T20:23:13.992Z,82.80
2022-10-01T20:25:47.761Z,82.55
2022-10-01T20:28:36.416Z,81.31
2022-10-01T20:31:16.460Z,80.67
2022-10-01T20:34:15.843Z,80.75
2022-10-01T20:37:08.142Z,81.26
2022-10-01T20:39:47.036Z,81.00
2022-10-01T20:42:24.205Z,81.69
2022-10-01T20:44:56.327Z,81.46
2022-10-01T20:47:46.741Z,81.10
2022-10-01T20:50:22.113Z,80.24
2022-10-01T20:53:04.124Z,80.42
2022-10-01T20:56:16.231Z,79.88
2022-10-01T20:58:59.136Z,78.05
2022-10-01T21:01:30.326Z,78.49
2022-10-01T21:04:05.206Z,78.76
2022-10-01T21:06:39.401Z,77.58
2022-10-01T21:09:18.628Z,76.99
2022-10-01T21:11:56.644Z,77.51
2022-10-01T21:14:24.931Z,77.50
2022-10-01T21:17:12.217Z,78.74
2022-10-01T21:19:54.907Z,78.24
2022-10-01T21:23:03.894Z,79.97
2022-10-01T21:25:37.830Z,77.47
2022-10-01T21:28:11.404Z,77.01
2022-10-01T21:30:53.076Z,77.15
2022-10-01T21:33:38.556Z,75.57
2022-10-01T21:36:27.919Z,75.74
2022-10-01T21:39:04.422Z,77.57
2022-10-01T21:42:04.376Z,78.14
2022-10-01T21:44:37.636Z,77.66
2022-10-01T21:47:40.972Z,77.80
2022-10-01T21:50:11.158Z,78.85
2022-10-01T21:53:08.138Z,76.91
2022-10-01T21:55:47.308Z,75.81
2022-10-01T21:58:55.480Z,74.37
2022-10-01T22:01:35.290Z,74.41
2022-10-01T22:04:32.154Z,75.16
2022-10-01T22:07:13.420Z,75.70
2022-10-01T22:09:51.862Z,74.53
2022-10-01T22:12:20.693Z,73.48
2022-10-01T22:14:51.652Z,74.72
2022-10-01T22:17:25.044Z,73.80
2022-10-01T22:19:56.943Z,72.53
2022-10-01T22:22:35.609Z,72.62
2022-10-01T22:25:05.116Z,74.12
2022-10-01T22:28:03.072Z,73.33
2022-10-01T22:30:36.958Z,72.25
2022-10-01T22:33:49.063Z,71.67
2022-10-01T22:36:31.705Z,72.20
2022-10-01T22:39:16.149Z,71.79
2022-10-01T22:41:56.385Z,70.70
2022-10-01T22:44:24.261Z,70.75
2022-10-01T22:47:00.726Z,70.92
2022-10-01T22:49:46.961Z,71.28
2022-10-01T22:52:17.426Z,71.13
2022-10-01T22:54:53.763Z,71.58
2022-10-01T22:57:43.693Z,71.07
2022-10-01T23:00:13.822Z,71.33
2022-10-01T23:02:49.993Z,72.19
2022-10-01T23:05:29.352Z,72.03
2022-10-01T23:08:07.381Z,72.96
2022-10-01T23:11:12.255Z,72.06
2022-10-01T23:13:58.689Z,71.58
2022-10-01T23:16:50.788Z,71.53
2022-10-01T23:19:38.959Z,71.47
2022-10-01T23:22:15.700Z,71.51
2022-10-01T23:24:59.394Z,71.12
2022-10-01T23:27:57.627Z,71.15
2022-10-01T23:30:32.100Z,70.68
2022-10-01T23:33:33.502Z,71.24
2022-10-01T23:36:28.893Z,70.57
2022-10-01T23:39:27.571Z,69.82
2022-10-01T23:42:02.697Z,69.84
2022-10-01T23:44:39.844Z,70.03
2022-10-01T23:47:16.943Z,70.83
2022-10-01T23:49:58.018Z,69.81
2022-10-01T23:52:47.556Z,71.30
2022-10-01T23:55:40.133Z,70.33
2022-10-01T23:58:13.927Z,70.04
